Time;durP1;ratioP1;P1;durP2;ratioP2;P2;SDS_P1;SDS_P2;PMS_P1;PMS_P2;Temp;Humidity;BMP_temperature;BMP_pressure;BME280_temperature;BME280_humidity;BME280_pressure;Samples;Min_cycle;Max_cycle;Signal;HPM_P1;HPM_P2
2023/03/28 00:00:43;;;;;;;6.07;1.60;;;;;;;;;;4941211;28;25109;-73
2023/03/28 00:03:13;;;;;;;11.65;2.75;;;;;;;;;;4948565;28;25069;-73
2023/03/28 00:05:39;;;;;;;9.65;2.22;;;;;;;;;;4938261;28;25143;-74
2023/03/28 00:08:06;;;;;;;11.38;2.30;;;;;;;;;;4944113;28;25113;-73
2023/03/28 00:10:33;;;;;;;5.40;1.80;;;;;;;;;;4947623;28;25060;-72
2023/03/28 00:12:59;;;;;;;7.47;1.77;;;;;;;;;;4936384;28;25055;-72
2023/03/28 00:15:25;;;;;;;6.03;2.03;;;;;;;;;;4948060;28;25081;-75
2023/03/28 00:17:52;;;;;;;14.15;5.93;;;;;;;;;;4946447;28;25091;-75
2023/03/28 00:20:18;;;;;;;7.32;2.00;;;;;;;;;;4944204;28;25107;-74
2023/03/28 00:22:44;;;;;;;6.25;2.05;;;;;;;;;;4949362;28;25063;-74
2023/03/28 00:25:12;;;;;;;6.13;1.60;;;;;;;;;;4950060;28;25139;-74
2023/03/28 00:27:38;;;;;;;11.77;1.90;;;;;;;;;;4941352;28;25084;-73
2023/03/28 00:30:04;;;;;;;6.35;1.92;;;;;;;;;;4943761;28;25091;-73
2023/03/28 00:32:30;;;;;;;9.40;2.00;;;;;;;;;;4943688;28;25081;-74
2023/03/28 00:34:56;;;;;;;9.35;2.50;;;;;;;;;;4943404;28;25114;-73
2023/03/28 00:37:23;;;;;;;9.98;2.10;;;;;;;;;;4947751;28;25062;-74
2023/03/28 00:39:49;;;;;;;11.05;2.00;;;;;;;;;;4935934;28;25073;-73
2023/03/28 00:42:21;;;;;;;13.07;2.22;;;;;;;;;;4947774;28;25063;-74
2023/03/28 00:44:47;;;;;;;;;;;;;;;;;;4954973;28;25064;-72
2023/03/28 00:47:16;;;;;;;5.25;1.80;;;;;;;;;;4971899;28;25052;-72
2023/03/28 00:49:43;;;;;;;4.40;1.65;;;;;;;;;;4948165;28;25106;-74
2023/03/28 00:52:12;;;;;;;8.80;2.00;;;;;;;;;;4939433;28;25080;-75
2023/03/28 00:54:39;;;;;;;11.30;2.30;;;;;;;;;;4962358;28;25085;-75
2023/03/28 00:57:05;;;;;;;13.05;2.13;;;;;;;;;;4947835;28;25061;-73
2023/03/28 00:59:33;;;;;;;6.10;3.78;;;;;;;;;;4948365;28;25081;-74
2023/03/28 01:01:59;;;;;;;20.42;2.17;;;;;;;;;;4941697;28;25147;-72
2023/03/28 01:04:32;;;;;;;8.02;1.90;;;;;;;;;;4947061;28;25509;-73
2023/03/28 01:06:58;;;;;;;10.20;2.50;;;;;;;;;;4943532;28;25061;-73
2023/03/28 01:09:25;;;;;;;9.93;2.20;;;;;;;;;;4941564;28;25079;-75
2023/03/28 01:11:51;;;;;;;10.10;1.73;;;;;;;;;;4935950;28;25084;-75
2023/03/28 01:14:19;;;;;;;7.90;1.75;;;;;;;;;;4949221;28;25065;-73
2023/03/28 01:16:46;;;;;;;10.98;2.60;;;;;;;;;;4958363;28;25184;-73
2023/03/28 01:19:31;;;;;;;6.82;2.17;;;;;;;;;;4943515;28;25070;-71
2023/03/28 01:22:05;;;;;;;8.98;1.80;;;;;;;;;;4939328;28;25154;-73
2023/03/28 01:24:42;;;;;;;7.80;1.50;;;;;;;;;;4934962;28;25076;-72
2023/03/28 01:27:27;;;;;;;6.63;1.80;;;;;;;;;;4944139;28;25091;-72
2023/03/28 01:30:06;;;;;;;8.55;1.83;;;;;;;;;;4937022;28;24792;-71
2023/03/28 01:32:50;;;;;;;9.35;2.15;;;;;;;;;;4947859;28;25069;-72
2023/03/28 01:35:21;;;;;;;16.92;3.45;;;;;;;;;;4950525;28;25089;-72
2023/03/28 01:37:53;;;;;;;11.52;2.22;;;;;;;;;;4951541;28;25148;-73
2023/03/28 01:40:38;;;;;;;7.70;2.05;;;;;;;;;;4953759;28;25079;-73
2023/03/28 01:43:22;;;;;;;4.72;1.40;;;;;;;;;;4948889;28;25113;-74
2023/03/28 01:45:53;;;;;;;7.78;1.70;;;;;;;;;;4946316;28;25150;-72
2023/03/28 01:48:45;;;;;;;3.78;1.65;;;;;;;;;;4947757;28;25084;-73
2023/03/28 01:51:17;;;;;;;6.82;1.67;;;;;;;;;;4950347;28;25063;-72
2023/03/28 01:53:46;;;;;;;8.45;2.17;;;;;;;;;;4954822;28;25083;-72
2023/03/28 01:56:12;;;;;;;8.25;4.78;;;;;;;;;;4956519;28;25071;-75
2023/03/28 01:58:48;;;;;;;7.72;1.80;;;;;;;;;;4952619;28;25135;-72
2023/03/28 02:01:17;;;;;;;7.40;1.80;;;;;;;;;;4945561;28;25064;-72
2023/03/28 02:03:47;;;;;;;6.38;1.67;;;;;;;;;;4948820;28;25063;-73
2023/03/28 02:06:14;;;;;;;9.52;2.10;;;;;;;;;;4951872;28;25068;-74
2023/03/28 02:08:41;;;;;;;7.78;1.65;;;;;;;;;;4947389;28;25075;-74
2023/03/28 02:11:08;;;;;;;4.65;1.50;;;;;;;;;;4979150;28;25093;-73
2023/03/28 02:13:37;;;;;;;6.00;1.73;;;;;;;;;;4968473;28;25074;-75
2023/03/28 02:16:04;;;;;;;6.70;1.73;;;;;;;;;;4963214;28;25061;-73
2023/03/28 02:18:33;;;;;;;8.48;1.67;;;;;;;;;;4960581;28;25149;-73
2023/03/28 02:21:01;;;;;;;4.95;1.70;;;;;;;;;;4954437;28;25107;-74
2023/03/28 02:23:36;;;;;;;9.18;2.33;;;;;;;;;;4944443;28;25082;-74
2023/03/28 02:26:02;;;;;;;5.93;1.70;;;;;;;;;;4959744;28;25070;-74
2023/03/28 02:28:28;;;;;;;4.68;1.83;;;;;;;;;;4954119;28;25151;-73
2023/03/28 02:30:54;;;;;;;7.70;1.55;;;;;;;;;;4956364;28;25077;-72
2023/03/28 02:33:32;;;;;;;4.82;1.70;;;;;;;;;;4954883;28;25121;-73
2023/03/28 02:36:17;;;;;;;9.55;2.28;;;;;;;;;;4963690;28;25099;-75
2023/03/28 02:38:43;;;;;;;5.82;1.90;;;;;;;;;;4965958;28;25076;-74
2023/03/28 02:41:09;;;;;;;7.60;1.70;;;;;;;;;;4957224;28;25097;-73
2023/03/28 02:43:38;;;;;;;6.03;1.80;;;;;;;;;;4968225;28;25076;-72
2023/03/28 02:46:20;;;;;;;5.00;1.85;;;;;;;;;;4955205;28;25079;-73
2023/03/28 02:48:57;;;;;;;3.05;1.45;;;;;;;;;;4962960;28;25069;-74
2023/03/28 02:51:39;;;;;;;10.55;2.33;;;;;;;;;;4963775;28;25097;-73
2023/03/28 02:54:28;;;;;;;5.35;1.50;;;;;;;;;;4965398;28;25065;-73
2023/03/28 02:57:00;;;;;;;6.15;1.70;;;;;;;;;;4963126;28;25060;-73
2023/03/28 02:59:27;;;;;;;;;;;;;;;;;;4967347;28;25061;-74
2023/03/28 03:01:59;;;;;;;10.15;1.70;;;;;;;;;;4953153;28;24074;-76
2023/03/28 03:04:25;;;;;;;6.03;2.33;;;;;;;;;;4959706;28;25119;-73
2023/03/28 03:06:51;;;;;;;6.88;2.15;;;;;;;;;;4959240;28;25119;-76
2023/03/28 03:09:17;;;;;;;11.05;2.20;;;;;;;;;;4962526;28;25063;-73
2023/03/28 03:11:43;;;;;;;11.98;1.90;;;;;;;;;;4953760;28;25077;-75
2023/03/28 03:14:10;;;;;;;3.90;1.55;;;;;;;;;;4957777;28;25075;-75
2023/03/28 03:16:37;;;;;;;11.75;2.10;;;;;;;;;;4962642;28;25070;-73
2023/03/28 03:19:03;;;;;;;11.27;2.00;;;;;;;;;;4964959;28;25130;-74
2023/03/28 03:21:29;;;;;;;11.10;4.03;;;;;;;;;;4959215;28;25068;-76
2023/03/28 03:23:55;;;;;;;8.10;2.30;;;;;;;;;;4955440;28;25060;-74
2023/03/28 03:26:21;;;;;;;5.32;2.00;;;;;;;;;;4947133;28;25076;-73
2023/03/28 03:28:48;;;;;;;5.85;1.60;;;;;;;;;;4959480;28;25055;-73
2023/03/28 03:31:16;;;;;;;7.47;2.13;;;;;;;;;;4942588;28;25134;-73
2023/03/28 03:33:42;;;;;;;9.23;1.90;;;;;;;;;;4950644;28;25057;-74
2023/03/28 03:36:08;;;;;;;11.38;2.30;;;;;;;;;;4945358;28;25064;-74
2023/03/28 03:38:35;;;;;;;10.60;1.98;;;;;;;;;;4949322;28;25057;-71
2023/03/28 03:41:01;;;;;;;6.53;2.20;;;;;;;;;;4943215;28;25087;-75
2023/03/28 03:43:27;;;;;;;6.47;2.38;;;;;;;;;;4949208;28;25094;-73
2023/03/28 03:45:55;;;;;;;5.57;2.10;;;;;;;;;;4950939;28;25098;-73
2023/03/28 03:48:21;;;;;;;5.57;1.90;;;;;;;;;;4953038;28;25104;-73
2023/03/28 03:50:47;;;;;;;9.27;2.40;;;;;;;;;;4951072;28;25082;-72
2023/03/28 03:53:12;;;;;;;5.05;2.25;;;;;;;;;;4953655;28;25075;-73
2023/03/28 03:55:39;;;;;;;7.63;2.08;;;;;;;;;;4943433;28;25098;-71
2023/03/28 03:58:05;;;;;;;8.55;2.67;;;;;;;;;;4950667;28;25100;-75
2023/03/28 04:00:31;;;;;;;11.32;2.55;;;;;;;;;;4951682;28;25132;-73
2023/03/28 04:02:57;;;;;;;12.40;2.08;;;;;;;;;;4945616;28;25071;-74
2023/03/28 04:05:23;;;;;;;6.00;2.38;;;;;;;;;;4953876;28;25069;-73
2023/03/28 04:07:49;;;;;;;3.25;1.80;;;;;;;;;;4938712;28;25066;-75
2023/03/28 04:10:15;;;;;;;7.18;2.25;;;;;;;;;;4955196;28;25067;-74
2023/03/28 04:12:41;;;;;;;13.50;2.40;;;;;;;;;;4948256;28;25133;-71
2023/03/28 04:15:07;;;;;;;9.20;2.20;;;;;;;;;;4944315;28;25057;-73
2023/03/28 04:17:34;;;;;;;6.55;2.45;;;;;;;;;;4939108;28;25067;-74
2023/03/28 04:20:01;;;;;;;7.90;2.58;;;;;;;;;;4945615;28;25057;-73
2023/03/28 04:22:30;;;;;;;6.13;2.20;;;;;;;;;;4938695;28;25063;-75
2023/03/28 04:24:56;;;;;;;6.47;2.13;;;;;;;;;;4943014;28;25079;-73
2023/03/28 04:27:25;;;;;;;6.88;2.20;;;;;;;;;;4951372;28;25076;-75
2023/03/28 04:29:52;;;;;;;7.75;2.38;;;;;;;;;;4946011;28;25112;-73
2023/03/28 04:32:20;;;;;;;11.60;3.00;;;;;;;;;;4942281;28;25153;-76
2023/03/28 04:34:48;;;;;;;8.60;2.88;;;;;;;;;;4943696;28;25064;-75
2023/03/28 04:37:14;;;;;;;10.60;2.65;;;;;;;;;;4943161;28;25097;-76
2023/03/28 04:39:40;;;;;;;6.05;2.70;;;;;;;;;;4945930;28;25143;-74
2023/03/28 04:42:07;;;;;;;7.80;3.08;;;;;;;;;;4949000;28;25068;-76
2023/03/28 04:44:33;;;;;;;5.60;2.88;;;;;;;;;;4948436;28;25109;-73
2023/03/28 04:46:59;;;;;;;8.65;2.63;;;;;;;;;;4944262;28;25096;-72
2023/03/28 04:49:25;;;;;;;7.07;2.80;;;;;;;;;;4946345;28;25075;-74
2023/03/28 04:51:52;;;;;;;8.70;3.25;;;;;;;;;;4941099;28;25064;-74
2023/03/28 04:54:18;;;;;;;9.10;3.00;;;;;;;;;;4947519;28;25137;-77
2023/03/28 04:56:44;;;;;;;5.75;2.42;;;;;;;;;;4943977;28;25132;-74
2023/03/28 04:59:13;;;;;;;7.55;2.90;;;;;;;;;;4948671;28;25090;-74
2023/03/28 05:01:40;;;;;;;10.57;3.05;;;;;;;;;;4949491;28;25072;-74
2023/03/28 05:04:06;;;;;;;7.93;2.78;;;;;;;;;;4954639;28;25143;-74
2023/03/28 05:06:32;;;;;;;6.85;2.97;;;;;;;;;;4962743;28;25067;-73
2023/03/28 05:08:59;;;;;;;9.27;3.22;;;;;;;;;;4954679;28;25131;-74
2023/03/28 05:11:25;;;;;;;8.73;3.40;;;;;;;;;;4957154;28;25112;-73
2023/03/28 05:13:51;;;;;;;10.88;3.13;;;;;;;;;;4953032;28;25101;-74
2023/03/28 05:16:17;;;;;;;15.40;4.10;;;;;;;;;;4952008;28;25121;-74
2023/03/28 05:18:43;;;;;;;10.07;3.83;;;;;;;;;;4962037;28;25077;-74
2023/03/28 05:21:09;;;;;;;19.88;4.20;;;;;;;;;;4962852;28;25078;-74
2023/03/28 05:23:35;;;;;;;8.93;3.95;;;;;;;;;;4962084;28;25115;-74
2023/03/28 05:26:01;;;;;;;9.32;4.22;;;;;;;;;;4947828;28;25078;-77
2023/03/28 05:28:28;;;;;;;16.90;4.30;;;;;;;;;;4958586;28;25068;-76
2023/03/28 05:30:54;;;;;;;8.45;4.10;;;;;;;;;;4959576;28;25157;-74
2023/03/28 05:33:20;;;;;;;9.35;4.13;;;;;;;;;;4953249;28;25063;-75
2023/03/28 05:35:47;;;;;;;14.55;4.07;;;;;;;;;;4949522;28;25167;-76
2023/03/28 05:38:13;;;;;;;15.23;4.28;;;;;;;;;;4957797;28;25074;-75
2023/03/28 05:40:39;;;;;;;9.35;4.57;;;;;;;;;;4943353;28;25058;-77
2023/03/28 05:43:05;;;;;;;13.57;4.32;;;;;;;;;;4951904;28;25072;-76
2023/03/28 05:45:31;;;;;;;13.85;4.65;;;;;;;;;;4961039;28;25064;-75
2023/03/28 05:47:57;;;;;;;11.45;4.22;;;;;;;;;;4954888;28;25134;-74
2023/03/28 05:50:23;;;;;;;13.18;4.20;;;;;;;;;;4953896;28;25116;-76
2023/03/28 05:52:49;;;;;;;8.43;4.93;;;;;;;;;;4944321;28;25065;-79
2023/03/28 05:55:15;;;;;;;9.57;4.07;;;;;;;;;;4955312;28;25090;-78
2023/03/28 05:57:42;;;;;;;16.55;5.40;;;;;;;;;;4949904;28;25075;-76
2023/03/28 06:00:09;;;;;;;13.77;6.07;;;;;;;;;;4951521;28;25065;-74
2023/03/28 06:02:35;;;;;;;14.73;6.10;;;;;;;;;;4943234;28;25080;-76
2023/03/28 06:05:02;;;;;;;12.45;5.88;;;;;;;;;;4938103;28;25153;-76
2023/03/28 06:07:28;;;;;;;16.30;6.18;;;;;;;;;;4946416;28;25075;-74
2023/03/28 06:09:54;;;;;;;13.18;6.53;;;;;;;;;;4937377;28;25105;-77
2023/03/28 06:12:20;;;;;;;17.30;6.03;;;;;;;;;;4946638;28;25100;-78
2023/03/28 06:14:46;;;;;;;20.27;7.00;;;;;;;;;;4949545;28;25053;-74
2023/03/28 06:17:12;;;;;;;18.95;8.05;;;;;;;;;;4941921;28;25078;-77
2023/03/28 06:19:37;;;;;;;14.13;6.53;;;;;;;;;;4954487;28;25065;-75
2023/03/28 06:22:03;;;;;;;18.92;6.57;;;;;;;;;;4949923;28;25126;-77
2023/03/28 06:24:30;;;;;;;17.75;6.70;;;;;;;;;;4948348;28;25068;-77
2023/03/28 06:26:55;;;;;;;22.52;7.15;;;3.10;99.90;;;;;;4952034;28;25124;-76
2023/03/28 06:29:21;;;;;;;14.48;6.28;;;;;;;;;;4951682;28;25102;-75
2023/03/28 06:31:47;;;;;;;15.63;6.63;;;;;;;;;;4953851;28;25094;-75
2023/03/28 06:34:13;;;;;;;17.75;7.55;;;;;;;;;;4958340;28;25075;-76
2023/03/28 06:36:39;;;;;;;12.77;6.25;;;;;;;;;;4950994;28;25156;-77
2023/03/28 06:39:05;;;;;;;17.15;6.68;;;;;;;;;;4956789;28;25052;-76
2023/03/28 06:41:31;;;;;;;21.95;7.93;;;;;;;;;;4956558;28;25152;-75
2023/03/28 06:43:57;;;;;;;13.15;6.57;;;;;;;;;;4952331;28;25136;-77
2023/03/28 06:46:23;;;;;;;19.40;7.82;;;;;;;;;;4941666;28;25065;-76
2023/03/28 06:48:49;;;;;;;17.55;6.63;;;;;;;;;;4950806;28;25139;-78
2023/03/28 06:51:15;;;;;;;17.30;6.95;;;;;;;;;;4944596;28;25060;-76
2023/03/28 06:53:41;;;;;;;20.77;7.55;;;;;;;;;;4937385;28;25155;-76
2023/03/28 06:56:07;;;;;;;21.33;7.90;;;;;;;;;;4945007;28;25076;-77
2023/03/28 06:58:33;;;;;;;15.98;6.78;;;;;;;;;;4941595;28;25069;-78
2023/03/28 07:01:00;;;;;;;15.35;7.93;;;;;;;;;;4956307;28;25063;-76
2023/03/28 07:03:28;;;;;;;13.70;6.90;;;;;;;;;;4952142;28;25071;-74
2023/03/28 07:05:54;;;;;;;20.63;6.93;;;;;;;;;;4953487;28;25070;-74
2023/03/28 07:08:20;;;;;;;15.10;7.47;;;;;;;;;;4948124;28;25055;-75
2023/03/28 07:10:47;;;;;;;27.92;8.50;;;;;;;;;;4952648;28;25077;-76
2023/03/28 07:13:13;;;;;;;14.27;6.47;;;;;;;;;;4948676;28;25144;-76
2023/03/28 07:15:39;;;;;;;20.67;7.30;;;;;;;;;;4952244;28;25095;-77
2023/03/28 07:18:09;;;;;;;18.52;6.80;;;;;;;;;;4959587;28;25137;-75
2023/03/28 07:20:37;;;;;;;26.05;8.23;;;;;;;;;;4964424;28;25112;-76
2023/03/28 07:23:03;;;;;;;19.25;6.88;;;;;;;;;;4946176;28;25079;-77
2023/03/28 07:25:29;;;;;;;19.02;7.22;;;;;;;;;;4949599;28;25081;-78
2023/03/28 07:27:55;;;;;;;36.35;8.13;;;;;;;;;;4955784;28;25063;-76
2023/03/28 07:30:24;;;;;;;17.42;8.35;;;;;;;;;;4953617;28;25055;-76
2023/03/28 07:32:50;;;;;;;21.38;7.28;;;;;;;;;;4951086;28;25121;-76
2023/03/28 07:35:16;;;;;;;14.30;7.07;;;;;;;;;;4960233;28;25111;-77
2023/03/28 07:37:42;;;;;;;21.85;7.15;;;;;;;;;;4960921;28;25072;-76
2023/03/28 07:40:09;;;;;;;23.30;7.65;;;;;;;;;;4964836;28;25089;-76
2023/03/28 07:42:35;;;;;;;14.52;6.10;;;;;;;;;;4956872;28;25165;-76
2023/03/28 07:45:01;;;;;;;16.13;5.57;;;;;;;;;;4959768;28;25082;-75
2023/03/28 07:47:29;;;;;;;17.13;4.88;;;;;;;;;;4957858;28;25146;-74
2023/03/28 07:49:56;;;;;;;13.38;5.13;;;;;;;;;;4942851;28;25129;-74
2023/03/28 07:52:22;;;;;;;14.02;5.38;;;;;;;;;;4956975;28;25056;-78
2023/03/28 07:54:48;;;;;;;10.57;5.03;;;;;;;;;;4949001;28;25165;-76
2023/03/28 07:57:14;;;;;;;15.10;5.20;;;;;;;;;;4961175;28;25067;-76
2023/03/28 07:59:40;;;;;;;13.70;5.50;;;;;;;;;;4955769;28;25131;-76
2023/03/28 08:02:06;;;;;;;15.43;6.38;;;;;;;;;;4946829;28;25106;-76
2023/03/28 08:04:32;;;;;;;13.57;4.97;;;;;;;;;;4951676;28;25077;-78
2023/03/28 08:06:59;;;;;;;12.73;4.80;;;;;;;;;;4953073;28;25075;-75
2023/03/28 08:09:25;;;;;;;14.50;4.43;;;;;;;;;;4951018;28;25073;-79
2023/03/28 08:11:51;;;;;;;14.27;4.18;;;;;;;;;;4951983;28;25087;-78
2023/03/28 08:14:17;;;;;;;12.85;3.60;;;;;;;;;;4944226;28;25092;-76
2023/03/28 08:16:44;;;;;;;10.82;4.43;;;;;;;;;;4940275;28;25086;-77
2023/03/28 08:19:10;;;;;;;10.38;4.13;;;;;;;;;;4954731;28;25070;-79
2023/03/28 08:21:36;;;;;;;10.63;3.78;;;;;;;;;;4948849;28;25131;-76
2023/03/28 08:24:03;;;;;;;13.30;3.88;;;;;;;;;;4952856;28;25075;-77
2023/03/28 08:26:29;;;;;;;13.23;3.88;;;;;;;;;;4955247;28;25161;-77
2023/03/28 08:28:57;;;;;;;12.82;3.75;;;;;;;;;;4955358;28;25070;-75
2023/03/28 08:31:25;;;;;;;7.18;3.38;;;;;;;;;;4951719;28;25153;-76
2023/03/28 08:33:52;;;;;;;12.27;4.03;;;;;;;;;;4955976;28;25143;-77
2023/03/28 08:36:19;;;;;;;10.20;3.25;;;;;;;;;;4954197;28;25073;-76
2023/03/28 08:38:45;;;;;;;8.75;3.92;;;;;;;;;;4943231;28;25091;-79
2023/03/28 08:41:22;;;;;;;9.50;3.72;;;;;;;;;;4960788;28;25054;-76
2023/03/28 08:43:54;;;;;;;11.65;4.43;;;;;;;;;;4952151;28;25093;-76
2023/03/28 08:46:21;;;;;;;10.13;3.80;;;;;;;;;;4950554;28;25063;-77
2023/03/28 08:48:48;;;;;;;10.82;3.88;;;;;;;;;;4947548;28;25063;-76
2023/03/28 08:51:27;;;;;;;6.57;3.10;;;;;;;;;;4954720;28;25051;-78
2023/03/28 08:54:14;;;;;;;7.72;2.97;;;;;;;;;;4952788;28;25059;-76
2023/03/28 08:56:44;;;;;;;14.10;3.25;;;;;;;;;;4947990;28;25141;-78
2023/03/28 08:59:11;;;;;;;7.40;3.10;;;;;;;;;;4955075;28;25084;-77
2023/03/28 09:01:38;;;;;;;9.50;2.50;;;;;;;;;;4954047;28;25058;-80
2023/03/28 09:04:04;;;;;;;12.13;2.90;;;;;;;;;;4946646;28;25082;-76
2023/03/28 09:06:36;;;;;;;8.05;3.08;;;;;;;;;;4948137;28;25108;-78
2023/03/28 09:09:18;;;;;;;10.18;3.10;;;;;;;;;;4948655;28;25131;-74
2023/03/28 09:11:59;;;;;;;8.25;2.38;;;;;;;;;;4961171;28;25139;-78
2023/03/28 09:14:28;;;;;;;8.00;3.08;;;;;;;;;;4955952;28;25053;-75
2023/03/28 09:17:13;;;;;;;6.68;2.65;;;;;;;;;;4948706;28;25061;-76
2023/03/28 09:19:46;;;;;;;8.27;2.22;;;;;;;;;;4948757;28;25063;-74
2023/03/28 09:22:27;;;;;;;7.90;2.75;;;;;;;;;;4938805;28;25072;-77
2023/03/28 09:24:52;;;;;;;5.93;2.25;;;;;;;;;;4943905;28;25090;-77
2023/03/28 09:27:24;;;;;;;10.32;2.25;;;;;;;;;;4954667;28;25080;-77
2023/03/28 09:29:51;;;;;;;11.88;2.58;;;;;;;;;;4951557;28;24864;-76
2023/03/28 09:32:20;;;;;;;4.40;1.88;;;;;;;;;;4943031;28;25071;-73
2023/03/28 09:34:50;;;;;;;6.25;2.03;;;;;;;;;;4956266;28;25084;-76
2023/03/28 09:37:36;;;;;;;9.35;2.95;;;;;;;;;;4934732;28;25112;-75
2023/03/28 09:40:14;;;;;;;4.70;1.90;;;;;;;;;;4940675;28;25134;-76
2023/03/28 09:42:46;;;;;;;5.20;1.50;;;;;;;;;;4945406;28;25055;-77
2023/03/28 09:45:15;;;;;;;5.18;1.60;;;;;;;;;;4942417;28;25076;-79
2023/03/28 09:47:43;;;;;;;6.82;2.10;;;;;;;;;;4935845;28;25060;-75
2023/03/28 09:50:12;;;;;;;10.20;1.90;;;;;;;;;;4948885;28;25066;-75
2023/03/28 09:52:39;;;;;;;5.90;1.90;;;;;;;;;;4942541;28;25093;-76
2023/03/28 09:55:05;;;;;;;9.80;2.15;;;;;;;;;;4941897;28;25087;-74
2023/03/28 09:57:51;;;;;;;8.10;1.90;;;;;;;;;;4942553;28;25070;-72
2023/03/28 10:00:21;;;;;;;7.15;2.00;;;;;;;;;;4950252;28;25104;-75
2023/03/28 10:02:51;;;;;;;8.60;1.95;;;;;;;;;;4954115;28;25069;-76
2023/03/28 10:05:35;;;;;;;5.35;2.30;;;;;;;;;;4950893;28;25056;-76
2023/03/28 10:08:06;;;;;;;12.70;2.30;;;;;;;;;;4942856;28;25062;-76
2023/03/28 10:10:32;;;;;;;7.72;2.10;;;;;;;;;;4946009;28;25158;-73
2023/03/28 10:13:01;;;;;;;6.78;3.08;;;;;;;;;;4950697;28;25106;-77
2023/03/28 10:15:44;;;;;;;7.90;3.63;;;;;;;;;;4949870;28;25067;-73
2023/03/28 10:18:16;;;;;;;19.77;5.32;;;;;;;;;;4944536;28;25080;-77
2023/03/28 10:20:42;;;;;;;21.87;7.23;;;;;;;;;;4965130;28;24852;-73
2023/03/28 10:23:11;;;;;;;16.80;7.05;;;;;;;;;;4942538;28;25060;-75
2023/03/28 10:25:39;;;;;;;14.60;7.50;;;;;;;;;;4935804;28;25056;-72
2023/03/28 10:28:06;;;;;;;25.38;6.45;;;;;;;;;;4949569;28;25076;-74
2023/03/28 10:30:33;;;;;;;19.40;6.35;;;;;;;;;;4948033;28;25065;-76
2023/03/28 10:33:25;;;;;;;12.07;6.07;;;;;;;;;;4942452;28;25066;-77
2023/03/28 10:36:11;;;;;;;14.02;4.68;;;;;;;;;;4943756;28;25092;-76
2023/03/28 10:38:43;;;;;;;10.32;3.45;;;;;;;;;;4946882;28;25062;-76
2023/03/28 10:41:19;;;;;;;10.60;2.85;;;;;;;;;;4947308;28;25097;-76
2023/03/28 10:43:45;;;;;;;10.88;1.85;;;;;;;;;;4958049;28;25075;-75
2023/03/28 10:46:18;;;;;;;10.20;1.98;;;;;;;;;;4969775;28;25049;-75
2023/03/28 10:49:03;;;;;;;6.53;1.88;;;;;;;;;;4958617;28;25071;-77
2023/03/28 10:51:31;;;;;;;10.00;2.00;;;;;;;;;;4947377;28;25053;-72
2023/03/28 10:54:16;;;;;;;8.88;2.50;;;;;;;;;;4961608;28;25071;-76
2023/03/28 10:56:49;;;;;;;4.68;2.30;;;;;;;;;;4959846;28;25058;-76
2023/03/28 10:59:21;;;;;;;7.63;2.15;;;;;;;;;;4959338;28;25071;-75
2023/03/28 11:01:47;;;;;;;10.98;1.70;;;;;;;;;;4954769;28;25094;-76
2023/03/28 11:04:21;;;;;;;5.57;1.60;;;;;;;;;;4940369;28;25083;-76
2023/03/28 11:06:56;;;;;;;8.43;2.58;;;;;;;;;;4945120;28;25108;-74
2023/03/28 11:09:31;;;;;;;7.85;2.28;;;;;;;;;;4939648;28;25079;-75
2023/03/28 11:12:05;;;;;;;4.55;1.63;;;;;;;;;;4941801;28;25056;-73
2023/03/28 11:14:43;;;;;;;6.40;1.88;;;;;;;;;;4948761;28;25080;-76
2023/03/28 11:17:21;;;;;;;5.30;1.70;;;;;;;;;;4941343;28;25095;-73
2023/03/28 11:20:05;;;;;;;3.92;1.75;;;;;;;;;;4948323;28;25069;-76
2023/03/28 11:22:31;;;;;;;5.90;1.63;;;;;;;;;;4937134;28;25138;-75
2023/03/28 11:25:26;;;;;;;6.20;1.90;;;;;;;;;;4942641;28;25065;-76
2023/03/28 11:28:04;;;;;;;5.43;2.35;;;;;;;;;;4928049;28;25079;-76
2023/03/28 11:30:35;;;;;;;10.38;2.03;;;;;;;;;;4951535;28;25063;-75
2023/03/28 11:33:08;;;;;;;5.82;1.67;;;;;;;;;;4935038;28;25097;-75
2023/03/28 11:35:36;;;;;;;9.18;2.63;;;;;;;;;;4946035;28;25060;-75
2023/03/28 11:38:24;;;;;;;6.15;2.63;;;;;;;;;;4940292;28;25121;-77
2023/03/28 11:40:53;;;;;;;5.50;1.80;;;;;;;;;;4940808;28;25167;-75
2023/03/28 11:43:27;;;;;;;4.47;1.75;;;;;;;;;;4948558;28;25062;-76
2023/03/28 11:45:55;;;;;;;7.57;1.85;;;;;;;;;;4945476;28;25082;-76
2023/03/28 11:48:43;;;;;;;5.85;1.92;;;;;;;;;;4942838;28;25109;-76
2023/03/28 11:51:35;;;;;;;2.63;1.70;;;;;;;;;;4935285;28;25104;-76
2023/03/28 11:54:18;;;;;;;6.97;2.45;;;;;;;;;;4941665;28;25074;-75
2023/03/28 11:56:59;;;;;;;4.47;1.55;;;;;;;;;;4944595;28;25093;-77
2023/03/28 11:59:34;;;;;;;7.65;1.75;;;;;;;;;;4944204;28;25085;-76
2023/03/28 12:02:07;;;;;;;8.27;1.63;;;;;;;;;;4942782;28;25104;-72
2023/03/28 12:04:41;;;;;;;4.75;1.63;;;;;;;;;;4938078;28;25058;-76
2023/03/28 12:07:19;;;;;;;5.00;1.52;;;;;;;;;;4944252;28;25083;-74
2023/03/28 12:10:20;;;;;;;2.38;1.70;;;;;;;;;;4937784;28;25058;-77
2023/03/28 12:12:49;;;;;;;5.78;1.70;;;;;;;;;;4902601;28;25076;-77
2023/03/28 12:15:18;;;;;;;5.63;1.83;;;;;;;;;;4946267;28;25109;-75
2023/03/28 12:17:46;;;;;;;4.68;1.50;;;;;;;;;;4959626;28;25078;-76
2023/03/28 12:20:27;;;;;;;7.03;1.63;;;;;;;;;;4959075;28;25102;-77
2023/03/28 12:22:56;;;;;;;4.28;1.63;;;;;;;;;;4942662;28;25071;-75
2023/03/28 12:25:39;;;;;;;5.75;1.58;;;;;;;;;;4936365;28;25061;-77
2023/03/28 12:28:09;;;;;;;5.68;1.77;;;;;;;;;;4937118;28;25060;-76
2023/03/28 12:30:39;;;;;;;2.92;1.50;;;;;;;;;;4946022;28;25069;-78
2023/03/28 12:33:12;;;;;;;6.22;1.60;;;;;;;;;;4947295;28;25088;-80
2023/03/28 12:35:41;;;;;;;8.30;1.80;;;;;;;;;;4962862;28;25149;-76
2023/03/28 12:38:33;;;;;;;6.32;1.70;;;;;;;;;;4952077;28;25072;-76
2023/03/28 12:41:01;;;;;;;5.72;2.10;;;;;;;;;;4926380;28;25074;-77
2023/03/28 12:43:39;;;;;;;8.43;2.40;;;;;;;;;;4953048;28;25059;-78
2023/03/28 12:46:07;;;;;;;13.32;2.85;;;;;;;;;;4939769;28;25137;-77
2023/03/28 12:48:45;;;;;;;8.23;2.10;;;;;;;;;;4950854;28;25136;-78
2023/03/28 12:51:28;;;;;;;6.40;1.88;;;;;;;;;;4940551;28;25078;-77
2023/03/28 12:54:06;;;;;;;9.95;4.25;;;;;;;;;;4945749;28;25067;-77
2023/03/28 12:56:32;;;;;;;9.88;2.05;;;;;;;;;;4944509;28;25089;-76
2023/03/28 12:58:58;;;;;;;6.10;1.70;;;;;;;;;;4941010;28;25105;-77
2023/03/28 13:01:43;;;;;;;5.88;2.20;;;;;;;;;;4946714;28;25089;-77
2023/03/28 13:04:09;;;;;;;6.13;1.98;;;;;;;;;;4935921;28;25072;-79
2023/03/28 13:06:51;;;;;;;5.10;1.83;;;;;;;;;;4947367;28;25110;-78
2023/03/28 13:09:43;;;;;;;8.85;2.03;;;;;;;;;;4937873;28;25094;-77
2023/03/28 13:12:13;;;;;;;4.50;2.50;;;;;;;;;;4943587;28;25066;-77
2023/03/28 13:14:40;;;;;;;6.65;2.15;;;;;;;;;;4941172;28;25096;-76
2023/03/28 13:17:18;;;;;;;9.73;2.03;;;;;;;;;;4939712;28;25113;-78
2023/03/28 13:19:52;;;;;;;7.43;1.85;;;;;;;;;;4939118;28;25096;-77
2023/03/28 13:22:21;;;;;;;5.97;2.30;;;;;;;;;;4946895;28;25079;-77
2023/03/28 13:24:47;;;;;;;3.10;1.73;;;;;;;;;;4937698;28;25091;-77
2023/03/28 13:27:27;;;;;;;9.60;2.13;;;;;;;;;;4944106;28;25088;-78
2023/03/28 13:29:59;;;;;;;3.15;1.67;;;;;;;;;;4948588;28;25096;-76
2023/03/28 13:32:25;;;;;;;5.78;1.75;;;;;;;;;;4940437;28;25049;-78
2023/03/28 13:34:56;;;;;;;7.05;2.08;;;;;;;;;;4952201;28;25102;-78
2023/03/28 13:37:27;;;;;;;9.70;2.08;;;;;;;;;;4949912;28;25052;-76
2023/03/28 13:39:58;;;;;;;7.55;2.60;;;;;;;;;;4963153;28;25066;-76
2023/03/28 13:42:31;;;;;;;4.93;2.20;;;;;;;;;;4951420;28;25099;-78
2023/03/28 13:44:59;;;;;;;7.43;3.05;;;;;;;;;;4937895;28;25119;-75
2023/03/28 13:47:32;;;;;;;6.75;2.92;;;;;;;;;;4944954;28;25156;-77
2023/03/28 13:50:00;;;;;;;7.95;2.50;;;;;;;;;;4947939;28;25079;-77
2023/03/28 13:52:26;;;;;;;6.00;2.55;;;;;;;;;;4949010;28;25101;-73
2023/03/28 13:54:59;;;;;;;9.85;2.65;;;;;;;;;;4945702;28;25158;-77
2023/03/28 13:57:26;;;;;;;6.18;2.33;;;;;;;;;;4961292;28;25058;-76
2023/03/28 13:59:55;;;;;;;8.43;2.78;;;;;;;;;;4932945;28;1039452;-74
2023/03/28 14:02:30;;;;;;;6.30;2.38;;;;;;;;;;4946012;28;25078;-77
2023/03/28 14:05:03;;;;;;;10.38;2.63;;;;;;;;;;4949597;28;25072;-78
2023/03/28 14:07:29;;;;;;;12.85;2.53;;;;;;;;;;4951981;28;25119;-79
2023/03/28 14:09:56;;;;;;;6.03;2.30;;;;;;;;;;4950274;28;25060;-73
2023/03/28 14:12:24;;;;;;;6.80;2.67;;;;;;;;;;4953142;28;25114;-76
2023/03/28 14:14:52;;;;;;;5.68;2.00;;;;;;;;;;4937889;28;25069;-77
2023/03/28 14:17:21;;;;;;;7.93;2.28;;;;;;;;;;4952377;28;25091;-77
2023/03/28 14:19:46;;;;;;;7.25;2.70;;;;;;;;;;4947604;28;25061;-77
2023/03/28 14:22:17;;;;;;;5.07;2.58;;;;;;;;;;4956852;28;25085;-79
2023/03/28 14:24:46;;;;;;;14.27;3.72;;;;;;;;;;4953701;28;25154;-78
2023/03/28 14:27:14;;;;;;;8.20;2.40;;;;;;;;;;4954936;28;25148;-76
2023/03/28 14:29:53;;;;;;;6.88;2.85;;;;;;;;;;4949725;28;25076;-76
2023/03/28 14:32:30;;;;;;;12.15;3.40;;;;;;;;;;4944661;28;25099;-78
2023/03/28 14:34:56;;;;;;;6.07;2.55;;;;;;;;;;4948138;28;25063;-79
2023/03/28 14:37:23;;;;;;;5.95;2.25;;;;;;;;;;4945556;28;25181;-76
2023/03/28 14:39:50;;;;;;;7.47;2.65;;;;;;;;;;4943603;28;25081;-78
2023/03/28 14:42:17;;;;;;;8.88;2.55;;;;;;;;;;4945789;28;25091;-75
2023/03/28 14:44:44;;;;;;;8.05;2.72;;;;;;;;;;4942136;28;25062;-79
2023/03/28 14:47:14;;;;;;;8.00;2.83;;;;;;;;;;4935636;28;25100;-76
2023/03/28 14:49:40;;;;;;;7.47;2.38;;;;;;;;;;4942397;28;25077;-79
2023/03/28 14:52:11;;;;;;;11.80;3.50;;;;;;;;;;4954135;28;25106;-76
2023/03/28 14:54:39;;;;;;;5.55;2.80;;;;;;;;;;4949037;28;25070;-77